Time,TemperatureF,DewpointF,PressureIn,WindDirection,WindDirectionDegrees,WindSpeedMPH,WindSpeedGustMPH,Humidity,HourlyPrecipIn,Conditions,Clouds,dailyrainin,SoftwareType,DateUTC
2013-03-05 00:01:00,39.9,36.7,29.55,ESE,123,8.0,14.0,88,0.00,FEW,,0.00,WeatherDisplay:10.37,2013-03-05 00:01:00,
2013-03-05 00:16:00,39.7,36.5,29.55,ESE,120,5.0,9.0,88,0.00,FEW,,0.00,WeatherDisplay:10.37,2013-03-05 00:16:00,
2013-03-05 00:31:00,39.5,36.2,29.55,ESE,115,7.0,10.0,88,0.00,FEW,,0.00,WeatherDisplay:10.37,2013-03-05 00:31:00,
2013-03-05 00:46:00,39.4,36.1,29.54,ESE,120,6.0,9.0,88,0.00,FEW,,0.00,WeatherDisplay:10.37,2013-03-05 00:46:00,
2013-03-05 01:01:00,39.7,36.5,29.54,ESE,116,7.0,10.0,88,0.00,FEW,,0.00,WeatherDisplay:10.37,2013-03-05 01:01:00,
2013-03-05 01:16:00,39.9,36.7,29.53,ESE,116,5.0,9.0,88,0.00,SCT,,0.00,WeatherDisplay:10.37,2013-03-05 01:16:00,
2013-03-05 01:31:00,39.9,36.7,29.53,ESE,121,6.0,10.0,88,0.00,SCT,,0.00,WeatherDisplay:10.37,2013-03-05 01:31:00,
2013-03-05 01:46:00,40.2,37.0,29.52,ESE,110,7.0,13.0,88,0.00,SCT,,0.00,WeatherDisplay:10.37,2013-03-05 01:46:00,
2013-03-05 02:01:00,40.8,37.5,29.52,East,100,8.0,13.0,88,0.00,SCT,,0.00,WeatherDisplay:10.37,2013-03-05 02:01:00,
2013-03-05 02:16:00,41.2,37.9,29.52,ESE,110,8.0,12.0,88,0.00,SCT,,0.00,WeatherDisplay:10.37,2013-03-05 02:16:00,
2013-03-05 02:31:00,41.5,38.2,29.51,ESE,112,10.0,12.0,88,0.00,SCT,,0.00,WeatherDisplay:10.37,2013-03-05 02:31:00,
2013-03-05 02:46:00,41.7,38.1,29.50,ESE,107,9.0,14.0,87,0.00,SCT,,0.00,WeatherDisplay:10.37,2013-03-05 02:46:00,
2013-03-05 03:01:00,41.9,38.3,29.49,ESE,108,12.0,14.0,87,0.00,SCT,,0.00,WeatherDisplay:10.37,2013-03-05 03:01:00,
2013-03-05 03:16:00,41.7,37.8,29.48,ESE,113,9.0,15.0,86,0.00,SCT,,0.00,WeatherDisplay:10.37,2013-03-05 03:16:00,
2013-03-05 03:31:00,41.7,37.8,29.48,ESE,122,8.0,17.0,86,0.00,SCT,,0.00,WeatherDisplay:10.37,2013-03-05 03:31:00,
2013-03-05 03:46:00,41.5,37.7,29.48,ESE,108,8.0,13.0,86,0.00,SCT,,0.00,WeatherDisplay:10.37,2013-03-05 03:46:00,
2013-03-05 04:01:00,41.5,37.7,29.47,ESE,106,10.0,13.0,86,0.00,SCT,,0.00,WeatherDisplay:10.37,2013-03-05 04:01:00,
2013-03-05 04:16:00,42.1,38.2,29.47,ESE,107,10.0,14.0,86,0.00,BKN,,0.00,WeatherDisplay:10.37,2013-03-05 04:16:00,
2013-03-05 04:31:00,42.6,39.0,29.47,ESE,110,7.0,17.0,87,0.00,BKN,,0.00,WeatherDisplay:10.37,2013-03-05 04:31:00,
2013-03-05 04:46:00,43.0,39.1,29.47,ESE,116,6.0,13.0,86,0.00,BKN,,0.00,WeatherDisplay:10.37,2013-03-05 04:46:00,
2013-03-05 05:16:00,44.4,40.5,29.47,ESE,117,7.0,12.0,86,0.00,BKN,,0.00,WeatherDisplay:10.37,2013-03-05 05:16:00,
2013-03-05 05:31:00,45.1,41.2,29.47,ESE,123,6.0,10.0,86,0.00,BKN,,0.00,WeatherDisplay:10.37,2013-03-05 05:31:00,
2013-03-05 05:46:00,45.5,41.3,29.46,ESE,109,8.0,14.0,85,0.00,BKN,,0.00,WeatherDisplay:10.37,2013-03-05 05:46:00,
2013-03-05 06:01:00,46.0,41.5,29.47,ESE,110,8.0,16.0,84,0.00,BKN,,0.00,WeatherDisplay:10.37,2013-03-05 06:01:00,
2013-03-05 06:16:00,46.2,41.7,29.47,ESE,112,6.0,12.0,84,0.00,BKN,,0.00,WeatherDisplay:10.37,2013-03-05 06:16:00,
2013-03-05 06:31:00,46.6,41.7,29.47,ESE,110,7.0,12.0,83,0.00,BKN,,0.00,WeatherDisplay:10.37,2013-03-05 06:31:00,
2013-03-05 06:46:00,46.8,41.9,29.47,ESE,112,10.0,13.0,83,0.00,BKN,,0.00,WeatherDisplay:10.37,2013-03-05 06:46:00,
2013-03-05 07:01:00,46.8,41.9,29.47,ESE,105,9.0,13.0,83,0.00,BKN,,0.00,WeatherDisplay:10.37,2013-03-05 07:01:00,
2013-03-05 07:16:00,46.6,41.7,29.47,ESE,120,7.0,14.0,83,0.00,BKN,,0.00,WeatherDisplay:10.37,2013-03-05 07:16:00,
2013-03-05 07:31:00,46.8,41.9,29.46,ESE,108,8.0,18.0,83,0.00,BKN,,0.00,WeatherDisplay:10.37,2013-03-05 07:31:00,
2013-03-05 07:46:00,46.8,41.9,29.46,ESE,110,12.0,15.0,83,0.00,BKN,,0.00,WeatherDisplay:10.37,2013-03-05 07:46:00,
2013-03-05 08:01:00,46.8,41.9,29.46,ESE,113,10.0,18.0,83,0.00,BKN,,0.00,WeatherDisplay:10.37,2013-03-05 08:01:00,
2013-03-05 08:16:00,46.8,41.9,29.46,East,99,9.0,17.0,83,0.00,BKN,,0.00,WeatherDisplay:10.37,2013-03-05 08:16:00,
2013-03-05 08:31:00,46.9,42.4,29.46,ESE,103,7.0,14.0,84,0.00,BKN,,0.00,WeatherDisplay:10.37,2013-03-05 08:31:00,
2013-03-05 08:46:00,47.1,42.5,29.47,SE,130,8.0,11.0,84,0.00,BKN,,0.00,WeatherDisplay:10.37,2013-03-05 08:46:00,
2013-03-05 09:01:00,47.5,42.9,29.47,SE,126,13.0,18.0,84,0.00,BKN,,0.00,WeatherDisplay:10.37,2013-03-05 09:01:00,
2013-03-05 09:16:00,47.5,42.9,29.47,SE,126,13.0,20.0,84,0.00,BKN,,0.00,WeatherDisplay:10.37,2013-03-05 09:16:00,
2013-03-05 09:31:00,47.3,43.0,29.47,ESE,110,10.0,17.0,85,0.00,BKN,,0.00,WeatherDisplay:10.37,2013-03-05 09:31:00,
2013-03-05 09:46:00,47.7,43.7,29.46,SE,128,8.0,17.0,86,0.00,BKN,,0.00,WeatherDisplay:10.37,2013-03-05 09:46:00,
2013-03-05 10:01:00,48.1,44.1,29.46,SE,124,8.0,17.0,86,0.00,BKN,,0.00,WeatherDisplay:10.37,2013-03-05 10:01:00,
2013-03-05 10:16:00,48.7,44.4,29.45,SE,128,12.0,17.0,85,0.00,BKN,,0.00,WeatherDisplay:10.37,2013-03-05 10:16:00,
2013-03-05 10:31:00,49.3,45.0,29.45,ESE,120,10.0,16.0,85,0.00,BKN,,0.00,WeatherDisplay:10.37,2013-03-05 10:31:00,
2013-03-05 10:46:00,49.8,45.2,29.45,ESE,122,10.0,17.0,84,0.00,BKN,,0.00,WeatherDisplay:10.37,2013-03-05 10:46:00,
2013-03-05 11:01:00,50.4,45.7,29.45,SE,124,14.0,18.0,84,0.00,BKN,,0.00,WeatherDisplay:10.37,2013-03-05 11:01:00,
2013-03-05 11:16:00,50.8,45.8,29.44,SE,130,10.0,20.0,83,0.00,BKN,,0.00,WeatherDisplay:10.37,2013-03-05 11:16:00,
2013-03-05 11:31:00,51.4,46.1,29.45,SE,124,12.0,17.0,82,0.00,BKN,,0.00,WeatherDisplay:10.37,2013-03-05 11:31:00,
2013-03-05 11:46:00,51.4,46.1,29.44,ESE,120,13.0,20.0,82,0.00,BKN,,0.00,WeatherDisplay:10.37,2013-03-05 11:46:00,
2013-03-05 12:01:00,51.6,46.0,29.43,ESE,121,12.0,20.0,81,0.00,BKN,,0.00,WeatherDisplay:10.37,2013-03-05 12:01:00,
2013-03-05 12:16:00,52.4,46.7,29.44,SE,127,8.0,21.0,81,0.00,BKN,,0.00,WeatherDisplay:10.37,2013-03-05 12:16:00,
2013-03-05 12:31:00,52.8,46.5,29.43,SE,133,12.0,19.0,79,0.00,BKN,,0.00,WeatherDisplay:10.37,2013-03-05 12:31:00,
2013-03-05 12:46:00,52.3,45.7,29.42,SE,130,9.0,21.0,78,0.00,BKN,,0.00,WeatherDisplay:10.37,2013-03-05 12:46:00,
2013-03-05 13:01:00,52.3,45.7,29.42,SE,127,9.0,20.0,78,0.00,BKN,,0.00,WeatherDisplay:10.37,2013-03-05 13:01:00,
2013-03-05 13:16:00,52.3,45.7,29.42,ESE,122,6.0,17.0,78,0.00,BKN,,0.00,WeatherDisplay:10.37,2013-03-05 13:16:00,
2013-03-05 13:31:00,52.3,45.7,29.42,ESE,119,10.0,18.0,78,0.00,BKN,,0.00,WeatherDisplay:10.37,2013-03-05 13:31:00,
2013-03-05 13:46:00,52.2,45.5,29.40,ESE,114,8.0,22.0,78,0.00,BKN,,0.00,WeatherDisplay:10.37,2013-03-05 13:46:00,
2013-03-05 14:01:00,52.3,45.7,29.39,SE,124,10.0,18.0,78,0.00,BKN,,0.00,WeatherDisplay:10.37,2013-03-05 14:01:00,
2013-03-05 14:16:00,52.6,45.9,29.39,SE,128,9.0,18.0,78,0.00,BKN,,0.00,WeatherDisplay:10.37,2013-03-05 14:16:00,
2013-03-05 14:31:00,52.9,45.5,29.39,SE,131,12.0,18.0,76,0.00,BKN,,0.00,WeatherDisplay:10.37,2013-03-05 14:31:00,
2013-03-05 14:46:00,52.7,45.3,29.39,ESE,123,9.0,19.0,76,0.00,BKN,,0.00,WeatherDisplay:10.37,2013-03-05 14:46:00,
2013-03-05 15:01:00,52.5,45.2,29.38,ESE,122,7.0,22.0,76,0.00,BKN,,0.00,WeatherDisplay:10.37,2013-03-05 15:01:00,
2013-03-05 15:16:00,52.6,45.2,29.37,ESE,116,9.0,16.0,76,0.00,BKN,,0.00,WeatherDisplay:10.37,2013-03-05 15:16:00,
2013-03-05 15:31:00,52.7,45.3,29.37,ESE,120,10.0,14.0,76,0.00,BKN,,0.00,WeatherDisplay:10.37,2013-03-05 15:31:00,
2013-03-05 15:46:00,52.9,45.2,29.37,SE,132,7.0,17.0,75,0.00,BKN,,0.00,WeatherDisplay:10.37,2013-03-05 15:46:00,
2013-03-05 16:01:00,52.3,44.6,29.37,SE,138,12.0,15.0,75,0.00,BKN,,0.00,WeatherDisplay:10.37,2013-03-05 16:01:00,
2013-03-05 16:16:00,51.6,44.0,29.37,SE,125,12.0,24.0,75,0.00,BKN,,0.00,WeatherDisplay:10.37,2013-03-05 16:16:00,
2013-03-05 16:31:00,51.1,43.4,29.37,ESE,115,6.0,18.0,75,0.00,BKN,,0.00,WeatherDisplay:10.37,2013-03-05 16:31:00,
2013-03-05 16:46:00,50.7,43.4,29.37,ESE,117,8.0,20.0,76,0.00,BKN,,0.00,WeatherDisplay:10.37,2013-03-05 16:46:00,
2013-03-05 17:01:00,50.5,43.3,29.37,ESE,117,10.0,18.0,76,0.00,BKN,,0.00,WeatherDisplay:10.37,2013-03-05 17:01:00,
2013-03-05 17:16:00,50.5,43.3,29.37,SE,127,8.0,18.0,76,0.00,-RA,,0.00,WeatherDisplay:10.37,2013-03-05 17:16:00,
2013-03-05 17:31:00,50.5,43.3,29.36,ESE,114,12.0,16.0,76,0.00,-RA,,0.00,WeatherDisplay:10.37,2013-03-05 17:31:00,
2013-03-05 17:46:00,50.6,43.3,29.37,ESE,118,12.0,20.0,76,0.00,-RA,,0.00,WeatherDisplay:10.37,2013-03-05 17:46:00,
2013-03-05 18:01:00,50.7,43.4,29.38,SE,124,12.0,17.0,76,0.00,-RA,,0.00,WeatherDisplay:10.37,2013-03-05 18:01:00,
2013-03-05 18:16:00,50.9,43.3,29.37,ESE,119,8.0,19.0,75,0.00,-RA,,0.00,WeatherDisplay:10.37,2013-03-05 18:16:00,
2013-03-05 18:31:00,51.0,43.3,29.37,ESE,117,8.0,16.0,75,0.00,-RA,,0.00,WeatherDisplay:10.37,2013-03-05 18:31:00,
2013-03-05 18:46:00,51.4,43.4,29.37,ESE,120,12.0,16.0,74,0.00,-RA,,0.00,WeatherDisplay:10.37,2013-03-05 18:46:00,
2013-03-05 19:01:00,51.6,43.2,29.38,SE,125,10.0,17.0,73,0.00,-RA,,0.00,WeatherDisplay:10.37,2013-03-05 19:01:00,
2013-03-05 19:16:00,51.6,43.2,29.38,ESE,121,9.0,17.0,73,0.00,-RA,,0.00,WeatherDisplay:10.37,2013-03-05 19:16:00,
2013-03-05 19:31:00,51.6,43.6,29.38,ESE,115,6.0,16.0,74,0.00,-RA,,0.00,WeatherDisplay:10.37,2013-03-05 19:31:00,
2013-03-05 19:46:00,51.6,43.6,29.38,ESE,114,5.0,13.0,74,0.00,-RA,,0.00,WeatherDisplay:10.37,2013-03-05 19:46:00,
2013-03-05 20:01:00,51.6,43.6,29.38,ESE,121,8.0,14.0,74,0.00,-RA,,0.00,WeatherDisplay:10.37,2013-03-05 20:01:00,
2013-03-05 20:16:00,51.6,43.6,29.38,ESE,105,8.0,13.0,74,0.00,-RA,,0.00,WeatherDisplay:10.37,2013-03-05 20:16:00,
2013-03-05 20:31:00,51.6,43.6,29.38,ESE,108,9.0,13.0,74,0.00,-RA,,0.00,WeatherDisplay:10.37,2013-03-05 20:31:00,
2013-03-05 20:46:00,51.6,44.0,29.38,ESE,112,9.0,12.0,75,0.00,-RA,,0.00,WeatherDisplay:10.37,2013-03-05 20:46:00,
2013-03-05 21:01:00,51.8,44.1,29.38,ESE,112,9.0,15.0,75,0.00,-RA,,0.00,WeatherDisplay:10.37,2013-03-05 21:01:00,
2013-03-05 21:16:00,51.6,44.0,29.38,ESE,110,7.0,18.0,75,0.00,-RA,,0.00,WeatherDisplay:10.37,2013-03-05 21:16:00,
2013-03-05 21:31:00,51.6,44.3,29.38,ESE,106,8.0,17.0,76,0.00,-RA,,0.00,WeatherDisplay:10.37,2013-03-05 21:31:00,
2013-03-05 21:46:00,51.4,44.5,29.38,ESE,111,9.0,17.0,77,0.00,-RA,,0.00,WeatherDisplay:10.37,2013-03-05 21:46:00,
2013-03-05 22:01:00,51.4,44.7,29.38,ESE,115,9.0,14.0,78,0.00,-RA,,0.00,WeatherDisplay:10.37,2013-03-05 22:01:00,
2013-03-05 22:16:00,51.4,45.1,29.38,ESE,110,9.0,14.0,79,0.00,-RA,,0.00,WeatherDisplay:10.37,2013-03-05 22:16:00,
2013-03-05 22:31:00,51.4,45.1,29.37,ESE,118,8.0,14.0,79,0.00,-RA,,0.00,WeatherDisplay:10.37,2013-03-05 22:31:00,
2013-03-05 22:47:00,51.4,45.1,29.37,ESE,114,7.0,12.0,79,0.00,-RA,,0.00,WeatherDisplay:10.37,2013-03-05 22:47:00,
2013-03-05 23:03:00,51.3,45.0,29.37,ESE,122,8.0,16.0,79,0.00,-RA,,0.00,WeatherDisplay:10.37,2013-03-05 23:03:00,
2013-03-05 23:18:00,51.3,45.0,29.36,ESE,116,9.0,14.0,79,0.00,-RA,,0.00,WeatherDisplay:10.37,2013-03-05 23:18:00,
2013-03-05 23:33:00,51.2,45.2,29.36,SE,130,8.0,16.0,80,0.00,-RA,,0.00,WeatherDisplay:10.37,2013-03-05 23:33:00,
2013-03-05 23:48:00,51.1,45.5,29.36,ESE,115,13.0,17.0,81,0.00,-RA,,0.00,WeatherDisplay:10.37,2013-03-05 23:48:00,